createdAt,value
2023-01-29T00:00:42.667Z,1012.71
2023-01-29T00:01:42.700Z,1012.73
2023-01-29T00:02:42.689Z,1012.62
2023-01-29T00:03:42.616Z,1012.58
2023-01-29T00:04:42.612Z,1012.60
2023-01-29T00:05:42.641Z,1012.59
2023-01-29T00:06:42.592Z,1012.56
2023-01-29T00:07:42.640Z,1012.61
2023-01-29T00:08:42.565Z,1012.59
2023-01-29T00:09:42.546Z,1012.58
2023-01-29T00:10:42.541Z,1012.54
2023-01-29T00:11:42.538Z,1012.53
2023-01-29T00:12:42.579Z,1012.54
2023-01-29T00:13:42.505Z,1012.43
2023-01-29T00:14:42.511Z,1012.41
2023-01-29T00:15:42.490Z,1012.40
2023-01-29T00:16:42.604Z,1012.37
2023-01-29T00:17:42.474Z,1012.36
2023-01-29T00:18:42.481Z,1012.34
2023-01-29T00:19:42.441Z,1012.38
2023-01-29T00:20:42.477Z,1012.34
2023-01-29T00:21:42.422Z,1012.37
2023-01-29T00:22:42.463Z,1012.32
2023-01-29T00:23:42.422Z,1012.41
2023-01-29T00:24:42.400Z,1012.43
2023-01-29T00:25:42.429Z,1012.38
2023-01-29T00:26:42.393Z,1012.44
2023-01-29T00:27:42.364Z,1012.41
2023-01-29T00:28:42.353Z,1012.36
2023-01-29T00:29:42.355Z,1012.35
2023-01-29T00:30:42.356Z,1012.33
2023-01-29T00:31:42.413Z,1012.33
2023-01-29T00:32:42.311Z,1012.29
2023-01-29T00:33:42.289Z,1012.28
2023-01-29T00:34:42.305Z,1012.33
2023-01-29T00:35:42.310Z,1012.28
2023-01-29T00:36:42.307Z,1012.28
2023-01-29T00:37:42.297Z,1012.25
2023-01-29T00:38:42.234Z,1012.29
2023-01-29T00:39:48.132Z,1012.25
2023-01-29T00:40:43.236Z,1012.30
2023-01-29T00:41:42.238Z,1012.27
2023-01-29T00:42:42.199Z,1012.23
2023-01-29T00:43:42.218Z,1012.23
2023-01-29T00:44:42.171Z,1012.27
2023-01-29T00:45:42.141Z,1012.26
2023-01-29T00:46:42.202Z,1012.30
2023-01-29T00:47:42.151Z,1012.33
2023-01-29T00:48:42.174Z,1012.32
2023-01-29T00:49:42.115Z,1012.30
2023-01-29T00:50:42.106Z,1012.30
2023-01-29T00:51:42.092Z,1012.27
2023-01-29T00:52:42.106Z,1012.30
2023-01-29T00:53:42.120Z,1012.32
2023-01-29T00:54:42.049Z,1012.31
2023-01-29T00:55:42.049Z,1012.25
2023-01-29T00:56:42.088Z,1012.31
2023-01-29T00:57:42.013Z,1012.24
2023-01-29T00:58:42.003Z,1012.31
2023-01-29T00:59:41.995Z,1012.25
2023-01-29T01:00:42.104Z,1012.32
2023-01-29T01:01:42.084Z,1012.24
2023-01-29T01:02:41.980Z,1012.31
2023-01-29T01:03:41.988Z,1012.28
2023-01-29T01:04:42.032Z,1012.29
2023-01-29T01:05:41.925Z,1012.32
2023-01-29T01:06:41.929Z,1012.31
2023-01-29T01:07:41.917Z,1012.29
2023-01-29T01:08:41.894Z,1012.20
2023-01-29T01:09:41.892Z,1012.20
2023-01-29T01:10:41.912Z,1012.18
2023-01-29T01:11:41.869Z,1012.16
2023-01-29T01:12:41.875Z,1012.13
2023-01-29T01:13:41.836Z,1012.09
2023-01-29T01:14:41.841Z,1012.16
2023-01-29T01:15:41.846Z,1012.17
2023-01-29T01:16:41.789Z,1012.13
2023-01-29T01:17:41.831Z,1012.13
2023-01-29T01:18:41.795Z,1012.11
2023-01-29T01:19:41.757Z,1012.06
2023-01-29T01:20:41.792Z,1012.06
2023-01-29T01:21:41.760Z,1012.05
2023-01-29T01:22:41.806Z,1012.03
2023-01-29T01:23:41.719Z,1012.07
2023-01-29T01:24:41.714Z,1012.08
2023-01-29T01:25:41.729Z,1012.07
2023-01-29T01:26:41.686Z,1012.04
2023-01-29T01:27:41.720Z,1012.00
2023-01-29T01:28:41.689Z,1012.05
2023-01-29T01:29:41.682Z,1012.03
2023-01-29T01:30:41.671Z,1012.05
2023-01-29T01:31:41.673Z,1012.04
2023-01-29T01:32:41.642Z,1012.01
2023-01-29T01:33:41.647Z,1012.00
2023-01-29T01:34:41.633Z,1011.97
2023-01-29T01:35:41.627Z,1011.99
2023-01-29T01:36:41.603Z,1012.02
2023-01-29T01:37:41.581Z,1012.07
2023-01-29T01:38:41.589Z,1012.05
2023-01-29T01:39:41.588Z,1012.06
2023-01-29T01:40:41.540Z,1012.09
2023-01-29T01:41:41.529Z,1012.08
2023-01-29T01:42:41.537Z,1012.12
2023-01-29T01:43:41.596Z,1012.05
2023-01-29T01:44:41.528Z,1012.04
2023-01-29T01:45:41.656Z,1011.98
2023-01-29T01:46:41.488Z,1011.94
2023-01-29T01:47:41.483Z,1011.95
2023-01-29T01:48:41.482Z,1011.85
2023-01-29T01:49:41.443Z,1011.87
2023-01-29T01:50:41.495Z,1011.84
2023-01-29T01:51:41.428Z,1011.87
2023-01-29T01:52:41.412Z,1011.80
2023-01-29T01:53:41.415Z,1011.76
2023-01-29T01:54:41.392Z,1011.72
2023-01-29T01:55:41.467Z,1011.73
2023-01-29T01:56:41.434Z,1011.69
2023-01-29T01:57:41.361Z,1011.65
2023-01-29T01:58:41.356Z,1011.65
2023-01-29T01:59:41.375Z,1011.73
2023-01-29T02:00:41.356Z,1011.73
2023-01-29T02:01:41.352Z,1011.82
2023-01-29T02:02:41.295Z,1011.77
2023-01-29T02:03:41.312Z,1011.82
2023-01-29T02:04:41.287Z,1011.79
2023-01-29T02:05:41.287Z,1011.83
2023-01-29T02:06:41.300Z,1011.83
2023-01-29T02:07:41.307Z,1011.86
2023-01-29T02:08:41.254Z,1011.83
2023-01-29T02:09:41.241Z,1011.81
2023-01-29T02:10:41.213Z,1011.85
2023-01-29T02:11:41.247Z,1011.86
2023-01-29T02:12:41.246Z,1011.85
2023-01-29T02:13:41.217Z,1011.90
2023-01-29T02:14:41.224Z,1011.86
2023-01-29T02:15:41.199Z,1011.88
2023-01-29T02:16:41.172Z,1012.00
2023-01-29T02:17:41.228Z,1011.98
2023-01-29T02:18:41.158Z,1011.98
2023-01-29T02:19:41.178Z,1011.98
2023-01-29T02:20:41.163Z,1012.01
2023-01-29T02:21:41.115Z,1012.03
2023-01-29T02:22:41.111Z,1011.95
2023-01-29T02:23:41.103Z,1011.97
2023-01-29T02:24:41.102Z,1012.00
2023-01-29T02:25:41.111Z,1011.96
2023-01-29T02:26:41.065Z,1011.99
2023-01-29T02:27:41.058Z,1012.07
2023-01-29T02:28:41.028Z,1012.09
2023-01-29T02:29:41.038Z,1012.08
2023-01-29T02:30:41.030Z,1012.08
2023-01-29T02:31:41.125Z,1012.08
2023-01-29T02:32:41.005Z,1012.14
2023-01-29T02:33:40.993Z,1012.16
2023-01-29T02:34:40.971Z,1012.16
2023-01-29T02:35:40.971Z,1012.15
2023-01-29T02:36:40.956Z,1012.17
2023-01-29T02:37:40.957Z,1012.12
2023-01-29T02:38:40.933Z,1012.15
2023-01-29T02:39:40.914Z,1012.13
2023-01-29T02:40:40.915Z,1012.14
2023-01-29T02:41:40.921Z,1012.13
2023-01-29T02:42:40.914Z,1012.08
2023-01-29T02:43:40.888Z,1012.14
2023-01-29T02:44:40.853Z,1012.15
2023-01-29T02:45:40.895Z,1012.11
2023-01-29T02:46:40.859Z,1012.05
2023-01-29T02:47:40.863Z,1011.98
2023-01-29T02:48:40.847Z,1011.96
2023-01-29T02:49:40.819Z,1011.90
2023-01-29T02:50:40.805Z,1011.92
2023-01-29T02:51:40.791Z,1011.92
2023-01-29T02:52:40.793Z,1011.89
2023-01-29T02:53:40.790Z,1011.97
2023-01-29T02:54:40.741Z,1011.97
2023-01-29T02:55:40.739Z,1012.02
2023-01-29T02:56:40.732Z,1012.07
2023-01-29T02:57:40.755Z,1012.03
2023-01-29T02:58:40.739Z,1012.16
2023-01-29T02:59:40.700Z,1012.19
2023-01-29T03:00:40.678Z,1012.18
2023-01-29T03:01:40.695Z,1012.16
2023-01-29T03:02:40.678Z,1012.22
2023-01-29T03:03:40.671Z,1012.19
2023-01-29T03:04:40.675Z,1012.20
2023-01-29T03:05:40.634Z,1012.19
2023-01-29T03:06:40.628Z,1012.17
2023-01-29T03:07:40.636Z,1012.14
2023-01-29T03:08:40.604Z,1012.11
2023-01-29T03:09:40.632Z,1012.12
2023-01-29T03:10:40.633Z,1012.12
2023-01-29T03:11:40.582Z,1012.12
2023-01-29T03:12:40.544Z,1012.13
2023-01-29T03:13:40.552Z,1012.19
2023-01-29T03:14:40.526Z,1012.17
2023-01-29T03:15:40.512Z,1012.15
2023-01-29T03:16:40.604Z,1012.13
2023-01-29T03:17:40.513Z,1012.15
2023-01-29T03:18:40.519Z,1012.18
2023-01-29T03:19:40.485Z,1012.18
2023-01-29T03:20:40.481Z,1012.21
2023-01-29T03:21:40.463Z,1012.17
2023-01-29T03:22:40.479Z,1012.24
2023-01-29T03:23:40.456Z,1012.21
2023-01-29T03:24:40.423Z,1012.19
2023-01-29T03:25:40.441Z,1012.23
2023-01-29T03:26:40.467Z,1012.15
2023-01-29T03:27:40.420Z,1012.17
2023-01-29T03:28:40.418Z,1012.15
2023-01-29T03:29:40.368Z,1012.15
2023-01-29T03:30:40.344Z,1012.17
2023-01-29T03:31:40.577Z,1012.18
2023-01-29T03:32:40.397Z,1012.20
2023-01-29T03:33:40.332Z,1012.17
2023-01-29T03:34:40.328Z,1012.13
2023-01-29T03:35:40.318Z,1012.10
2023-01-29T03:36:40.335Z,1012.05
2023-01-29T03:37:40.298Z,1012.07
2023-01-29T03:38:40.279Z,1012.05
2023-01-29T03:39:40.310Z,1012.06
2023-01-29T03:40:40.271Z,1011.93
2023-01-29T03:41:40.285Z,1011.97
2023-01-29T03:42:40.261Z,1011.93
2023-01-29T03:43:40.234Z,1011.96
2023-01-29T03:44:40.215Z,1011.94
2023-01-29T03:45:40.295Z,1011.95
2023-01-29T03:46:40.247Z,1011.95
2023-01-29T03:47:40.196Z,1011.89
2023-01-29T03:48:40.184Z,1011.96
2023-01-29T03:49:40.147Z,1011.93
2023-01-29T03:50:40.179Z,1011.95
2023-01-29T03:51:40.201Z,1012.00
2023-01-29T03:52:40.142Z,1011.95
2023-01-29T03:53:40.107Z,1011.96
2023-01-29T03:54:40.124Z,1011.89
2023-01-29T03:55:40.100Z,1011.89
2023-01-29T03:56:40.079Z,1011.89
2023-01-29T03:57:40.147Z,1011.86
2023-01-29T03:58:40.080Z,1011.93
2023-01-29T03:59:40.069Z,1011.94
2023-01-29T04:00:40.028Z,1011.91
2023-01-29T04:01:40.072Z,1011.94
2023-01-29T04:02:40.037Z,1011.93
2023-01-29T04:03:40.054Z,1011.87
2023-01-29T04:04:40.025Z,1011.95
2023-01-29T04:05:40.004Z,1011.90
2023-01-29T04:06:39.967Z,1011.89
2023-01-29T04:07:39.979Z,1011.95
2023-01-29T04:08:40.008Z,1011.99
2023-01-29T04:09:39.943Z,1011.96
2023-01-29T04:10:39.929Z,1011.97
2023-01-29T04:11:39.931Z,1012.01
2023-01-29T04:12:39.905Z,1012.02
2023-01-29T04:13:39.949Z,1011.96
2023-01-29T04:14:39.900Z,1012.07
2023-01-29T04:15:39.896Z,1012.02
2023-01-29T04:16:39.932Z,1012.00
2023-01-29T04:17:39.868Z,1012.00
2023-01-29T04:18:39.884Z,1011.93
2023-01-29T04:19:39.835Z,1011.95
2023-01-29T04:20:39.873Z,1011.97
2023-01-29T04:21:39.814Z,1011.92
2023-01-29T04:22:39.805Z,1011.90
2023-01-29T04:23:39.811Z,1011.93
2023-01-29T04:24:39.796Z,1011.90
2023-01-29T04:25:39.801Z,1011.89
2023-01-29T04:26:39.801Z,1011.85
2023-01-29T04:27:39.756Z,1011.83
2023-01-29T04:28:39.732Z,1011.78
2023-01-29T04:29:39.738Z,1011.73
2023-01-29T04:30:39.767Z,1011.71
2023-01-29T04:31:39.811Z,1011.70
2023-01-29T04:32:39.713Z,1011.65
2023-01-29T04:33:39.692Z,1011.65
2023-01-29T04:34:39.719Z,1011.65
2023-01-29T04:35:39.676Z,1011.64
2023-01-29T04:36:39.670Z,1011.61
2023-01-29T04:37:39.638Z,1011.66
2023-01-29T04:38:39.632Z,1011.62
2023-01-29T04:39:39.645Z,1011.66
2023-01-29T04:40:39.621Z,1011.68
2023-01-29T04:41:39.607Z,1011.67
2023-01-29T04:42:39.648Z,1011.68
2023-01-29T04:43:39.593Z,1011.69
2023-01-29T04:44:39.617Z,1011.66
2023-01-29T04:45:39.566Z,1011.63
2023-01-29T04:46:39.567Z,1011.59
2023-01-29T04:47:39.555Z,1011.55
2023-01-29T04:48:39.537Z,1011.54
2023-01-29T04:49:39.575Z,1011.45
2023-01-29T04:50:39.515Z,1011.53
2023-01-29T04:51:39.507Z,1011.50
2023-01-29T04:52:39.545Z,1011.49
2023-01-29T04:53:39.475Z,1011.53
2023-01-29T04:54:39.467Z,1011.44
2023-01-29T04:55:39.455Z,1011.48
2023-01-29T04:56:39.463Z,1011.47
2023-01-29T04:57:39.449Z,1011.52
2023-01-29T04:58:39.441Z,1011.48
2023-01-29T04:59:39.419Z,1011.43
2023-01-29T05:00:39.440Z,1011.40
2023-01-29T05:01:39.478Z,1011.42
2023-01-29T05:02:39.426Z,1011.36
2023-01-29T05:03:39.362Z,1011.34
2023-01-29T05:04:39.359Z,1011.34
2023-01-29T05:05:39.355Z,1011.40
2023-01-29T05:06:39.355Z,1011.38
2023-01-29T05:07:39.345Z,1011.42
2023-01-29T05:08:39.353Z,1011.39
2023-01-29T05:09:39.297Z,1011.39
2023-01-29T05:10:39.299Z,1011.34
2023-01-29T05:11:39.295Z,1011.27
2023-01-29T05:12:39.257Z,1011.29
2023-01-29T05:13:39.641Z,1011.35
2023-01-29T05:14:39.262Z,1011.40
2023-01-29T05:15:39.254Z,1011.48
2023-01-29T05:16:39.227Z,1011.41
2023-01-29T05:17:39.232Z,1011.41
2023-01-29T05:18:39.205Z,1011.38
2023-01-29T05:19:39.256Z,1011.34
2023-01-29T05:20:39.204Z,1011.33
2023-01-29T05:21:41.059Z,1011.30
2023-01-29T05:22:39.165Z,1011.31
2023-01-29T05:23:39.153Z,1011.32
2023-01-29T05:24:39.144Z,1011.33
2023-01-29T05:25:39.162Z,1011.27
2023-01-29T05:26:39.110Z,1011.27
2023-01-29T05:27:39.130Z,1011.27
2023-01-29T05:28:39.090Z,1011.22
2023-01-29T05:29:39.112Z,1011.24
2023-01-29T05:30:39.128Z,1011.30
2023-01-29T05:31:39.153Z,1011.25
2023-01-29T05:32:39.086Z,1011.29
2023-01-29T05:33:39.063Z,1011.31
2023-01-29T05:34:39.034Z,1011.28
2023-01-29T05:35:39.043Z,1011.28
2023-01-29T05:36:39.037Z,1011.30
2023-01-29T05:37:38.994Z,1011.26
2023-01-29T05:38:39.003Z,1011.30
2023-01-29T05:39:38.975Z,1011.23
2023-01-29T05:40:39.001Z,1011.24
2023-01-29T05:41:38.964Z,1011.21
2023-01-29T05:42:38.959Z,1011.20
2023-01-29T05:43:38.923Z,1011.16
2023-01-29T05:44:38.928Z,1011.20
2023-01-29T05:45:38.945Z,1011.25
2023-01-29T05:46:38.961Z,1011.23
2023-01-29T05:47:38.917Z,1011.22
2023-01-29T05:48:38.863Z,1011.22
2023-01-29T05:49:38.926Z,1011.22
2023-01-29T05:50:38.845Z,1011.21
2023-01-29T05:51:38.869Z,1011.25
2023-01-29T05:52:38.842Z,1011.16
2023-01-29T05:53:38.827Z,1011.12
2023-01-29T05:54:38.802Z,1011.08
2023-01-29T05:55:38.801Z,1011.05
2023-01-29T05:56:38.848Z,1011.07
2023-01-29T05:57:38.792Z,1011.07
2023-01-29T05:58:38.805Z,1011.05
2023-01-29T05:59:38.797Z,1011.10
2023-01-29T06:00:38.745Z,1011.05
2023-01-29T06:01:38.765Z,1011.04
2023-01-29T06:02:38.717Z,1011.12
2023-01-29T06:03:38.718Z,1011.09
2023-01-29T06:04:38.699Z,1011.05
2023-01-29T06:05:38.747Z,1011.07
2023-01-29T06:06:38.673Z,1011.12
2023-01-29T06:07:38.669Z,1011.10
2023-01-29T06:08:38.680Z,1011.10
2023-01-29T06:09:38.676Z,1011.08
2023-01-29T06:10:38.649Z,1011.06
2023-01-29T06:11:38.634Z,1011.07
2023-01-29T06:12:38.630Z,1011.10
2023-01-29T06:13:38.609Z,1011.08
2023-01-29T06:14:38.625Z,1011.12
2023-01-29T06:15:38.596Z,1011.11
2023-01-29T06:16:38.565Z,1011.10
2023-01-29T06:17:38.574Z,1011.09
2023-01-29T06:18:38.536Z,1011.04
2023-01-29T06:19:38.566Z,1011.06
2023-01-29T06:20:38.541Z,1011.03
2023-01-29T06:21:38.541Z,1011.09
2023-01-29T06:22:38.498Z,1011.07
2023-01-29T06:23:38.550Z,1011.08
2023-01-29T06:24:38.501Z,1011.09
2023-01-29T06:25:38.519Z,1011.08
2023-01-29T06:26:38.489Z,1011.02
2023-01-29T06:27:38.451Z,1011.04
2023-01-29T06:28:38.443Z,1011.09
2023-01-29T06:29:38.414Z,1011.03
2023-01-29T06:30:38.449Z,1011.07
2023-01-29T06:31:39.678Z,1011.14
2023-01-29T06:32:38.453Z,1011.09
2023-01-29T06:33:38.381Z,1011.06
2023-01-29T06:34:38.387Z,1011.06
2023-01-29T06:35:38.386Z,1011.05
2023-01-29T06:36:38.348Z,1011.05
2023-01-29T06:37:38.363Z,1011.08
2023-01-29T06:38:38.337Z,1011.08
2023-01-29T06:39:38.353Z,1011.15
2023-01-29T06:40:38.333Z,1011.13
2023-01-29T06:41:38.322Z,1011.18
2023-01-29T06:42:38.292Z,1011.16
2023-01-29T06:43:38.270Z,1011.16
2023-01-29T06:44:38.259Z,1011.25
2023-01-29T06:45:38.294Z,1011.32
2023-01-29T06:46:38.311Z,1011.35
2023-01-29T06:47:38.269Z,1011.42
2023-01-29T06:48:38.221Z,1011.34
2023-01-29T06:49:38.206Z,1011.37
2023-01-29T06:50:38.218Z,1011.41
2023-01-29T06:51:38.240Z,1011.40
2023-01-29T06:52:38.180Z,1011.41
2023-01-29T06:53:38.183Z,1011.47
2023-01-29T06:54:38.165Z,1011.47
2023-01-29T06:55:38.173Z,1011.46
2023-01-29T06:56:38.136Z,1011.46
2023-01-29T06:57:38.145Z,1011.51
2023-01-29T06:58:38.119Z,1011.52
2023-01-29T06:59:38.105Z,1011.53
2023-01-29T07:00:38.168Z,1011.54
2023-01-29T07:01:38.175Z,1011.59
2023-01-29T07:02:38.083Z,1011.67
2023-01-29T07:03:38.055Z,1011.70
2023-01-29T07:04:38.092Z,1011.75
2023-01-29T07:05:38.062Z,1011.77
2023-01-29T07:06:38.072Z,1011.80
2023-01-29T07:07:38.007Z,1011.73
2023-01-29T07:08:38.003Z,1011.77
2023-01-29T07:09:38.011Z,1011.75
2023-01-29T07:10:37.970Z,1011.76
2023-01-29T07:11:38.020Z,1011.77
2023-01-29T07:12:37.995Z,1011.86
2023-01-29T07:13:37.945Z,1011.88
2023-01-29T07:14:37.956Z,1011.84
2023-01-29T07:15:37.914Z,1011.85
2023-01-29T07:16:37.953Z,1011.94
2023-01-29T07:17:37.925Z,1011.88
2023-01-29T07:18:37.930Z,1011.94
2023-01-29T07:19:37.921Z,1011.90
2023-01-29T07:20:37.864Z,1011.91
2023-01-29T07:21:37.887Z,1011.88
2023-01-29T07:22:37.859Z,1011.94
2023-01-29T07:23:37.824Z,1011.87
2023-01-29T07:24:37.868Z,1011.90
2023-01-29T07:25:37.825Z,1011.96
2023-01-29T07:26:37.842Z,1011.93
2023-01-29T07:27:37.783Z,1011.85
2023-01-29T07:28:37.788Z,1011.90
2023-01-29T07:29:37.808Z,1011.93
2023-01-29T07:30:37.755Z,1011.95
2023-01-29T07:31:37.837Z,1012.00
2023-01-29T07:32:37.756Z,1012.07
2023-01-29T07:33:37.749Z,1012.14
2023-01-29T07:34:37.717Z,1012.09
2023-01-29T07:35:37.741Z,1012.10
2023-01-29T07:36:37.692Z,1012.15
2023-01-29T07:37:37.742Z,1012.21
2023-01-29T07:38:37.702Z,1012.18
2023-01-29T07:39:37.680Z,1012.20
2023-01-29T07:40:37.684Z,1012.18
2023-01-29T07:41:37.660Z,1012.24
2023-01-29T07:42:37.681Z,1012.28
2023-01-29T07:43:37.634Z,1012.26
2023-01-29T07:44:37.622Z,1012.29
2023-01-29T07:45:37.635Z,1012.32
2023-01-29T07:46:37.581Z,1012.27
2023-01-29T07:47:37.590Z,1012.28
2023-01-29T07:48:37.596Z,1012.30
2023-01-29T07:49:37.564Z,1012.34
2023-01-29T07:50:37.555Z,1012.28
2023-01-29T07:51:37.561Z,1012.30
2023-01-29T07:52:37.532Z,1012.15
2023-01-29T07:53:37.533Z,1012.20
2023-01-29T07:54:37.528Z,1012.16
2023-01-29T07:55:37.491Z,1012.04
2023-01-29T07:56:37.499Z,1012.08
2023-01-29T07:57:37.513Z,1012.00
2023-01-29T07:58:37.467Z,1011.99
2023-01-29T07:59:37.484Z,1011.98
2023-01-29T08:00:37.439Z,1011.99
2023-01-29T08:01:37.420Z,1011.92
2023-01-29T08:02:37.505Z,1011.92
2023-01-29T08:03:37.456Z,1011.89
2023-01-29T08:04:37.405Z,1011.97
2023-01-29T08:05:37.397Z,1011.98
2023-01-29T08:06:37.383Z,1011.92
2023-01-29T08:07:37.389Z,1011.82
2023-01-29T08:08:37.426Z,1011.86
2023-01-29T08:09:37.338Z,1011.75
2023-01-29T08:10:37.344Z,1011.79
2023-01-29T08:11:37.337Z,1011.79
2023-01-29T08:12:37.326Z,1011.75
2023-01-29T08:13:37.310Z,1011.77
2023-01-29T08:14:37.331Z,1011.79
2023-01-29T08:15:39.211Z,1011.77
2023-01-29T08:16:37.330Z,1011.72
2023-01-29T08:17:49.096Z,1011.67
2023-01-29T08:18:38.260Z,1011.70
2023-01-29T08:19:37.296Z,1011.62
2023-01-29T08:20:37.235Z,1011.60
2023-01-29T08:21:37.203Z,1011.62
2023-01-29T08:22:37.244Z,1011.54
2023-01-29T08:23:37.195Z,1011.49
2023-01-29T08:24:53.212Z,1011.46
2023-01-29T08:25:38.314Z,1011.39
2023-01-29T08:26:37.168Z,1011.36
2023-01-29T08:27:37.161Z,1011.46
2023-01-29T08:28:37.181Z,1011.40
2023-01-29T08:29:37.123Z,1011.47
2023-01-29T08:30:37.192Z,1011.46
2023-01-29T08:31:37.154Z,1011.48
2023-01-29T08:32:37.132Z,1011.46
2023-01-29T08:33:39.287Z,1011.53
2023-01-29T08:34:37.078Z,1011.60
2023-01-29T08:35:37.089Z,1011.59
2023-01-29T08:36:37.055Z,1011.69
2023-01-29T08:37:37.044Z,1011.65
2023-01-29T08:38:37.077Z,1011.64
2023-01-29T08:39:37.007Z,1011.58
2023-01-29T08:40:37.038Z,1011.61
2023-01-29T08:41:37.009Z,1011.68
2023-01-29T08:42:36.988Z,1011.67
2023-01-29T08:43:37.217Z,1011.67
2023-01-29T08:44:36.997Z,1011.65
2023-01-29T08:45:37.045Z,1011.58
2023-01-29T08:46:36.945Z,1011.62
2023-01-29T08:47:36.927Z,1011.57
2023-01-29T08:48:36.978Z,1011.56
2023-01-29T08:49:36.966Z,1011.54
2023-01-29T08:50:36.922Z,1011.58
2023-01-29T08:51:36.958Z,1011.57
2023-01-29T08:52:36.867Z,1011.62
2023-01-29T08:53:36.891Z,1011.60
2023-01-29T08:54:36.902Z,1011.62
2023-01-29T08:55:36.846Z,1011.73
2023-01-29T08:56:36.846Z,1011.78
2023-01-29T08:57:36.830Z,1011.79
2023-01-29T08:58:36.823Z,1011.82
2023-01-29T08:59:36.807Z,1011.84
2023-01-29T09:00:36.852Z,1011.84
2023-01-29T09:01:36.769Z,1011.92
2023-01-29T09:02:36.838Z,1012.02
2023-01-29T09:03:36.775Z,1012.04
2023-01-29T09:04:36.782Z,1012.08
2023-01-29T09:05:36.824Z,1012.08
2023-01-29T09:06:36.719Z,1012.16
2023-01-29T09:07:36.700Z,1012.20
2023-01-29T09:08:36.698Z,1012.27
2023-01-29T09:09:36.709Z,1012.30
2023-01-29T09:10:36.709Z,1012.21
2023-01-29T09:11:36.662Z,1012.16
2023-01-29T09:12:36.732Z,1012.12
2023-01-29T09:13:36.674Z,1012.04
2023-01-29T09:14:36.631Z,1012.08
2023-01-29T09:15:36.623Z,1012.03
2023-01-29T09:16:36.603Z,1012.00
2023-01-29T09:17:36.622Z,1011.97
2023-01-29T09:18:36.630Z,1011.94
2023-01-29T09:19:36.573Z,1011.86
2023-01-29T09:20:36.571Z,1011.84
2023-01-29T09:21:36.545Z,1011.79
2023-01-29T09:22:36.584Z,1011.77
2023-01-29T09:23:36.511Z,1011.69
2023-01-29T09:24:36.524Z,1011.60
2023-01-29T09:25:36.494Z,1011.52
2023-01-29T09:26:36.537Z,1011.54
2023-01-29T09:27:36.544Z,1011.53
2023-01-29T09:28:36.496Z,1011.60
2023-01-29T09:29:36.451Z,1011.64
2023-01-29T09:30:36.672Z,1011.67
2023-01-29T09:31:36.467Z,1011.64
2023-01-29T09:32:53.998Z,1011.69
2023-01-29T09:33:37.417Z,1011.67
2023-01-29T09:34:36.395Z,1011.77
2023-01-29T09:35:36.416Z,1011.71
2023-01-29T09:36:36.398Z,1011.71
2023-01-29T09:37:36.385Z,1011.66
2023-01-29T09:38:36.377Z,1011.62
2023-01-29T09:39:36.330Z,1011.69
2023-01-29T09:40:36.344Z,1011.69
2023-01-29T09:41:36.317Z,1011.72
2023-01-29T09:42:36.366Z,1011.72
2023-01-29T09:43:36.306Z,1011.71
2023-01-29T09:44:36.337Z,1011.71
2023-01-29T09:45:36.277Z,1011.66
2023-01-29T09:46:36.284Z,1011.65
2023-01-29T09:47:36.245Z,1011.57
2023-01-29T09:48:36.234Z,1011.49
2023-01-29T09:49:36.235Z,1011.46
2023-01-29T09:50:36.264Z,1011.41
2023-01-29T09:51:36.197Z,1011.36
2023-01-29T09:52:36.175Z,1011.42
2023-01-29T09:53:36.178Z,1011.39
2023-01-29T09:54:36.197Z,1011.35
2023-01-29T09:55:36.188Z,1011.29
2023-01-29T09:56:36.149Z,1011.24
2023-01-29T09:57:36.125Z,1011.25
2023-01-29T09:58:36.163Z,1011.29
2023-01-29T09:59:36.120Z,1011.20
2023-01-29T10:00:36.120Z,1011.24
2023-01-29T10:01:36.165Z,1011.25
2023-01-29T10:02:36.115Z,1011.32
2023-01-29T10:03:36.048Z,1011.26
2023-01-29T10:04:36.105Z,1011.21
2023-01-29T10:05:36.048Z,1011.23
2023-01-29T10:06:36.059Z,1011.25
2023-01-29T10:07:36.029Z,1011.21
2023-01-29T10:08:36.011Z,1011.10
2023-01-29T10:09:35.988Z,1011.09
2023-01-29T10:10:36.030Z,1011.02
2023-01-29T10:11:35.988Z,1011.04
2023-01-29T10:12:35.958Z,1011.09
2023-01-29T10:13:35.959Z,1011.04
2023-01-29T10:14:35.996Z,1010.95
2023-01-29T10:15:35.955Z,1010.93
2023-01-29T10:16:35.966Z,1010.92
2023-01-29T10:17:35.915Z,1011.00
2023-01-29T10:18:35.893Z,1010.96
2023-01-29T10:19:35.869Z,1010.94
2023-01-29T10:20:35.876Z,1010.75
2023-01-29T10:21:35.880Z,1010.78
2023-01-29T10:22:35.873Z,1010.74
2023-01-29T10:23:35.839Z,1010.80
2023-01-29T10:24:35.824Z,1010.69
2023-01-29T10:25:35.815Z,1010.71
2023-01-29T10:26:35.857Z,1010.74
2023-01-29T10:27:35.821Z,1010.70
2023-01-29T10:28:35.789Z,1010.70
2023-01-29T10:29:35.763Z,1010.70
2023-01-29T10:30:35.745Z,1010.70
2023-01-29T10:31:35.830Z,1010.65
2023-01-29T10:32:35.711Z,1010.68
2023-01-29T10:33:54.281Z,1010.66
2023-01-29T10:34:36.744Z,1010.64
2023-01-29T10:35:35.697Z,1010.57
2023-01-29T10:36:35.745Z,1010.58
2023-01-29T10:37:35.671Z,1010.62
2023-01-29T10:38:35.691Z,1010.63
2023-01-29T10:39:35.655Z,1010.65
2023-01-29T10:40:35.676Z,1010.60
2023-01-29T10:41:35.650Z,1010.59
2023-01-29T10:42:35.616Z,1010.57
2023-01-29T10:43:35.619Z,1010.62
2023-01-29T10:44:35.615Z,1010.53
2023-01-29T10:45:35.608Z,1010.49
2023-01-29T10:46:35.607Z,1010.49
2023-01-29T10:47:35.636Z,1010.41
2023-01-29T10:48:35.559Z,1010.46
2023-01-29T10:49:35.569Z,1010.39
2023-01-29T10:50:35.546Z,1010.35
2023-01-29T10:51:35.505Z,1010.34
2023-01-29T10:52:35.523Z,1010.36
2023-01-29T10:53:35.484Z,1010.28
2023-01-29T10:54:35.469Z,1010.27
2023-01-29T10:55:35.508Z,1010.35
2023-01-29T10:56:35.468Z,1010.27
2023-01-29T10:57:35.439Z,1010.23
2023-01-29T10:58:35.459Z,1010.22
2023-01-29T10:59:35.470Z,1010.26
2023-01-29T11:00:35.449Z,1010.20
2023-01-29T11:01:35.470Z,1010.17
2023-01-29T11:02:35.432Z,1010.13
2023-01-29T11:03:35.453Z,1010.15
2023-01-29T11:04:35.405Z,1010.10
2023-01-29T11:05:35.353Z,1010.04
2023-01-29T11:06:35.372Z,1010.08
2023-01-29T11:07:35.340Z,1010.09
2023-01-29T11:08:35.330Z,1010.16
2023-01-29T11:09:35.365Z,1010.14
2023-01-29T11:10:35.325Z,1010.12
2023-01-29T11:11:35.310Z,1010.08
2023-01-29T11:12:35.267Z,1010.11
2023-01-29T11:13:35.281Z,1010.10
2023-01-29T11:14:35.327Z,1010.08
2023-01-29T11:15:35.280Z,1010.05
2023-01-29T11:16:35.230Z,1010.00
2023-01-29T11:17:35.234Z,1010.00
2023-01-29T11:18:35.259Z,1009.97
2023-01-29T11:19:35.202Z,1009.92
2023-01-29T11:20:35.212Z,1009.89
2023-01-29T11:21:35.189Z,1009.89
2023-01-29T11:22:35.160Z,1009.83
2023-01-29T11:23:35.151Z,1009.75
2023-01-29T11:24:35.162Z,1009.85
2023-01-29T11:25:35.156Z,1009.74
2023-01-29T11:26:35.192Z,1009.75
2023-01-29T11:27:35.133Z,1009.84
2023-01-29T11:28:35.101Z,1009.77
2023-01-29T11:29:35.101Z,1009.75
2023-01-29T11:30:35.125Z,1009.71
2023-01-29T11:31:35.091Z,1009.71
2023-01-29T11:32:35.102Z,1009.70
2023-01-29T11:33:35.083Z,1009.70
2023-01-29T11:34:35.036Z,1009.64
2023-01-29T11:35:35.057Z,1009.61
2023-01-29T11:36:35.002Z,1009.64
2023-01-29T11:37:35.053Z,1009.62
2023-01-29T11:38:34.995Z,1009.61
2023-01-29T11:39:34.983Z,1009.50
2023-01-29T11:40:34.964Z,1009.44
2023-01-29T11:41:34.962Z,1009.42
2023-01-29T11:42:34.958Z,1009.48
2023-01-29T11:43:34.959Z,1009.42
2023-01-29T11:44:34.917Z,1009.44
2023-01-29T11:45:34.985Z,1009.42
2023-01-29T11:46:34.910Z,1009.42
2023-01-29T11:47:34.915Z,1009.40
2023-01-29T11:48:34.906Z,1009.35
2023-01-29T11:49:34.866Z,1009.35
2023-01-29T11:50:34.880Z,1009.30
2023-01-29T11:51:34.852Z,1009.39
2023-01-29T11:52:34.884Z,1009.38
2023-01-29T11:53:34.867Z,1009.37
2023-01-29T11:54:34.818Z,1009.36
2023-01-29T11:55:49.442Z,1009.34
2023-01-29T11:56:35.776Z,1009.36
2023-01-29T11:57:34.767Z,1009.31
2023-01-29T11:58:34.829Z,1009.36
2023-01-29T11:59:34.765Z,1009.34
2023-01-29T12:00:34.740Z,1009.36
2023-01-29T12:01:34.768Z,1009.39
2023-01-29T12:02:34.696Z,1009.34
2023-01-29T12:03:34.757Z,1009.33
2023-01-29T12:04:34.739Z,1009.27
2023-01-29T12:05:34.706Z,1009.24